^^

Weather Underground History

Daily Summary for March 27, 2014 Units:  Metric    English   Both
Daily Weekly Monthly Yearly Custom
  High: Low: Average:
Temperature: 9 °C 2 °C 4.1 °C
Dew Point: 5 °C 1 °C 2.5 °C
Humidity: 96% 72% 91%
Wind Speed: 26km/h 0km/h 10.5km/h
Wind Gust: 26km/h - -
Wind- - ESE
Pressure: 1015.24 hPa 1012.19 hPa -
Precipitation: 4.06 mm    
Historical Graphs
 
 
Tabular Data for March 27, 2014
Time Temperature Dew Point Pressure Wind Wind Speed Wind Gust Humidity Rainfall Rate (Hourly) solar
00:01 2 °C 1 °C 1013.21 hPa N 4 km/h   93% 0 mm 0 W/m2
00:06 2 °C 1 °C 1013.21 hPa N 6 km/h 6 km/h 93% 0 mm 0 W/m2
00:11 2 °C 1 °C 1013.21 hPa N 4 km/h 4 km/h 93% 0.25 mm 0 W/m2
00:16 2 °C 1 °C 1013.21 hPa N 6 km/h 6 km/h 94% 0.25 mm 0 W/m2
00:21 2 °C 1 °C 1013.21 hPa N 2 km/h   93% 0.51 mm 0 W/m2
00:26 2 °C 1 °C 1013.21 hPa N 5 km/h 5 km/h 93% 0.51 mm 0 W/m2
00:31 2 °C 1 °C 1013.21 hPa N 6 km/h   94% 0.51 mm 0 W/m2
00:36 2 °C 1 °C 1013.21 hPa Calm     94% 0.51 mm 0 W/m2
00:41 2 °C 1 °C 1013.21 hPa Calm     94% 0.51 mm 0 W/m2
00:46 2 °C 1 °C 1013.21 hPa SE 7 km/h 7 km/h 94% 0.51 mm 0 W/m2
00:51 2 °C 1 °C 1012.87 hPa ESE 6 km/h 6 km/h 94% 0.51 mm 0 W/m2
00:56 2 °C 1 °C 1012.87 hPa ESE 6 km/h 6 km/h 94% 0.51 mm 0 W/m2
01:01 2 °C 1 °C 1012.87 hPa Calm     94% 0.51 mm 0 W/m2
01:06 2 °C 1 °C 1012.87 hPa Calm     94% 0.51 mm 0 W/m2
01:11 2 °C 1 °C 1012.87 hPa Calm     94% 0.51 mm 0 W/m2
01:16 2 °C 1 °C 1012.87 hPa Calm     94% 0.51 mm 0 W/m2
01:21 2 °C 1 °C 1012.87 hPa Calm     94% 0.25 mm 0 W/m2
01:26 2 °C 1 °C 1012.87 hPa ESE 3 km/h 3 km/h 94% 0.25 mm 0 W/m2
01:31 2 °C 1 °C 1012.87 hPa SE 6 km/h 6 km/h 94% 0.25 mm 0 W/m2
01:36 2 °C 1 °C 1012.87 hPa Calm     94% 0.25 mm 0 W/m2
01:41 2 °C 1 °C 1012.87 hPa ESE 7 km/h 7 km/h 94% 0.25 mm 0 W/m2
01:46 2 °C 1 °C 1013.21 hPa SSE 9 km/h 9 km/h 94% 0 mm 0 W/m2
01:51 2 °C 1 °C 1012.87 hPa SE 6 km/h 6 km/h 94% 0 mm 0 W/m2
01:56 2 °C 1 °C 1012.87 hPa ESE 9 km/h 9 km/h 94% 0 mm 0 W/m2
02:01 2 °C 1 °C 1012.87 hPa ESE 9 km/h 9 km/h 94% 0 mm 0 W/m2
02:06 2 °C 1 °C 1012.87 hPa ESE 9 km/h 9 km/h 94% 0 mm 0 W/m2
02:11 2 °C 1 °C 1012.87 hPa ESE 9 km/h 9 km/h 94% 0 mm 0 W/m2
02:16 2 °C 1 °C 1012.87 hPa ESE 6 km/h 6 km/h 94% 0 mm 0 W/m2
02:21 2 °C 1 °C 1012.87 hPa ESE 8 km/h 8 km/h 94% 0 mm 0 W/m2
02:26 2 °C 1 °C 1013.21 hPa SE 9 km/h 9 km/h 94% 0 mm 0 W/m2
02:31 2 °C 1 °C 1012.87 hPa ESE 11 km/h 11 km/h 94% 0 mm 0 W/m2
02:36 2 °C 1 °C 1013.21 hPa E 11 km/h 11 km/h 95% 0 mm 0 W/m2
02:41 2 °C 1 °C 1013.21 hPa ESE 11 km/h 11 km/h 95% 0 mm 0 W/m2
02:46 2 °C 1 °C 1012.87 hPa ESE 10 km/h 10 km/h 95% 0 mm 0 W/m2
02:51 2 °C 1 °C 1012.87 hPa SE 11 km/h 11 km/h 95% 0 mm 0 W/m2
02:56 2 °C 1 °C 1012.87 hPa ESE 13 km/h 13 km/h 95% 0 mm 0 W/m2
03:01 2 °C 1 °C 1012.87 hPa ESE 11 km/h 11 km/h 95% 0 mm 0 W/m2
03:06 2 °C 1 °C 1012.87 hPa ESE 19 km/h 19 km/h 95% 0 mm 0 W/m2
03:11 2 °C 1 °C 1013.21 hPa ESE 13 km/h 13 km/h 95% 0 mm 0 W/m2
03:16 2 °C 1 °C 1013.21 hPa ESE 13 km/h 13 km/h 95% 0 mm 0 W/m2
03:21 2 °C 1 °C 1013.21 hPa ESE 15 km/h 15 km/h 95% 0 mm 0 W/m2
03:26 2 °C 1 °C 1012.87 hPa ESE 9 km/h 9 km/h 95% 0 mm 0 W/m2
03:31 2 °C 1 °C 1012.87 hPa SE 15 km/h 15 km/h 95% 0 mm 0 W/m2
03:36 2 °C 1 °C 1013.21 hPa SE 14 km/h 14 km/h 95% 0 mm 0 W/m2
03:41 2 °C 1 °C 1012.87 hPa ESE 9 km/h 9 km/h 95% 0 mm 0 W/m2
03:46 2 °C 1 °C 1013.21 hPa SE 11 km/h 11 km/h 95% 0 mm 0 W/m2
03:51 2 °C 1 °C 1013.21 hPa ESE 9 km/h 9 km/h 95% 0 mm 0 W/m2
03:56 2 °C 1 °C 1013.21 hPa SE 15 km/h 15 km/h 95% 0 mm 0 W/m2
04:01 2 °C 1 °C 1013.21 hPa ESE 19 km/h 19 km/h 95% 0 mm 0 W/m2
04:05 2 °C 1 °C 1013.21 hPa ESE 11 km/h 11 km/h 95% 0 mm 0 W/m2
04:10 2 °C 1 °C 1013.21 hPa ESE 11 km/h 11 km/h 95% 0 mm 0 W/m2
04:15 2 °C 1 °C 1013.21 hPa ESE 19 km/h 19 km/h 95% 0 mm 0 W/m2
04:20 2 °C 1 °C 1013.21 hPa ESE 15 km/h 15 km/h 95% 0 mm 0 W/m2
04:25 2 °C 1 °C 1013.21 hPa SSE 19 km/h 19 km/h 95% 0 mm 0 W/m2
04:30 2 °C 1 °C 1013.21 hPa ESE 11 km/h 11 km/h 95% 0 mm 0 W/m2
04:35 2 °C 1 °C 1013.55 hPa SE 15 km/h 15 km/h 95% 0 mm 0 W/m2
04:40 2 °C 1 °C 1013.55 hPa ESE 11 km/h 11 km/h 95% 0 mm 0 W/m2
04:45 2 °C 1 °C 1013.55 hPa SE 13 km/h 13 km/h 95% 0 mm 0 W/m2
04:50 2 °C 1 °C 1013.55 hPa ESE 13 km/h 13 km/h 95% 0 mm 0 W/m2
04:55 2 °C 1 °C 1013.55 hPa SE 11 km/h 11 km/h 95% 0 mm 0 W/m2
05:00 2 °C 1 °C 1013.55 hPa SE 11 km/h 11 km/h 95% 0 mm 0 W/m2
05:05 2 °C 1 °C 1013.55 hPa ESE 11 km/h 11 km/h 95% 0 mm 0 W/m2
05:10 2 °C 1 °C 1013.21 hPa ESE 9 km/h 9 km/h 95% 0 mm 0 W/m2
05:15 2 °C 1 °C 1013.55 hPa ESE 15 km/h 15 km/h 95% 0 mm 0 W/m2
05:20 2 °C 1 °C 1013.55 hPa ESE 13 km/h 13 km/h 95% 0 mm 0 W/m2
05:25 2 °C 1 °C 1013.55 hPa E 11 km/h 11 km/h 95% 0 mm 0 W/m2
05:30 2 °C 1 °C 1013.55 hPa SE 19 km/h 19 km/h 95% 0 mm 0 W/m2
05:35 2 °C 1 °C 1013.55 hPa ESE 11 km/h 11 km/h 95% 0 mm 0 W/m2
05:40 2 °C 1 °C 1013.55 hPa ESE 11 km/h 11 km/h 95% 0 mm 0 W/m2
05:45 2 °C 1 °C 1013.55 hPa ESE 15 km/h 15 km/h 95% 0 mm 0 W/m2
05:50 2 °C 1 °C 1013.55 hPa ESE 19 km/h 19 km/h 95% 0 mm 0 W/m2
05:55 2 °C 1 °C 1013.55 hPa ESE 9 km/h 9 km/h 95% 0 mm 0 W/m2
06:00 2 °C 1 °C 1013.88 hPa ESE 11 km/h 11 km/h 95% 0 mm 0 W/m2
06:05 2 °C 1 °C 1013.88 hPa SE 11 km/h 11 km/h 95% 0 mm 5 W/m2
06:10 2 °C 1 °C 1013.88 hPa ESE 11 km/h 11 km/h 95% 0 mm 5 W/m2
06:15 2 °C 1 °C 1013.88 hPa ESE 19 km/h 19 km/h 95% 0 mm 9 W/m2
06:20 2 °C 1 °C 1013.88 hPa E 11 km/h 11 km/h 95% 0 mm 11 W/m2
06:25 2 °C 1 °C 1013.88 hPa ESE 11 km/h 11 km/h 95% 0 mm 12 W/m2
06:30 2 °C 1 °C 1014.22 hPa ESE 9 km/h 9 km/h 95% 0 mm 21 W/m2
06:35 2 °C 1 °C 1014.22 hPa ESE 9 km/h 9 km/h 95% 0 mm 28 W/m2
06:40 2 °C 1 °C 1014.22 hPa ESE 13 km/h 13 km/h 95% 0 mm 30 W/m2
06:45 2 °C 1 °C 1014.22 hPa ESE 13 km/h 13 km/h 95% 0 mm 32 W/m2
06:50 2 °C 1 °C 1014.22 hPa ESE 13 km/h 13 km/h 95% 0 mm 32 W/m2
06:55 2 °C 1 °C 1014.22 hPa ESE 15 km/h 15 km/h 95% 0 mm 33 W/m2
07:00 2 °C 1 °C 1014.22 hPa ESE 13 km/h 13 km/h 95% 0 mm 42 W/m2
07:05 2 °C 1 °C 1014.22 hPa ESE 15 km/h 15 km/h 95% 0 mm 49 W/m2
07:10 2 °C 1 °C 1014.22 hPa E 9 km/h 9 km/h 95% 0 mm 62 W/m2
07:15 2 °C 1 °C 1014.22 hPa E 9 km/h 9 km/h 95% 0 mm 79 W/m2
07:20 2 °C 2 °C 1014.56 hPa ESE 9 km/h 9 km/h 95% 0 mm 76 W/m2
07:25 2 °C 2 °C 1014.56 hPa ENE 6 km/h 6 km/h 95% 0 mm 76 W/m2
07:30 2 °C 2 °C 1014.56 hPa ESE 10 km/h 10 km/h 95% 0 mm 67 W/m2
07:35 2 °C 2 °C 1014.56 hPa E 11 km/h 11 km/h 95% 0 mm 74 W/m2
07:40 2 °C 2 °C 1014.56 hPa ENE 11 km/h 11 km/h 95% 0 mm 72 W/m2
07:45 2 °C 2 °C 1014.56 hPa E 15 km/h 15 km/h 95% 0 mm 76 W/m2
07:50 2 °C 2 °C 1014.56 hPa E 15 km/h 15 km/h 95% 0 mm 67 W/m2
07:55 2 °C 2 °C 1014.56 hPa E 11 km/h 11 km/h 95% 0 mm 105 W/m2
08:00 2 °C 2 °C 1014.56 hPa ESE 17 km/h 17 km/h 95% 0 mm 130 W/m2
08:05 3 °C 2 °C 1014.56 hPa E 9 km/h 9 km/h 95% 0 mm 223 W/m2
08:10 3 °C 2 °C 1014.56 hPa E 15 km/h 15 km/h 95% 0 mm 81 W/m2
08:15 3 °C 2 °C 1014.56 hPa ESE 18 km/h 18 km/h 95% 0 mm 111 W/m2
08:20 3 °C 2 °C 1014.56 hPa ESE 13 km/h 13 km/h 95% 0 mm 123 W/m2
08:25 3 °C 2 °C 1014.56 hPa ENE 13 km/h 13 km/h 95% 0 mm 113 W/m2
08:30 3 °C 2 °C 1014.9 hPa E 15 km/h 15 km/h 95% 0 mm 105 W/m2
08:35 3 °C 2 °C 1014.9 hPa ESE 19 km/h 19 km/h 95% 0 mm 139 W/m2
08:40 3 °C 2 °C 1014.9 hPa ENE 17 km/h 17 km/h 95% 0 mm 130 W/m2
08:45 3 °C 2 °C 1014.9 hPa ENE 15 km/h 15 km/h 94% 0.25 mm 181 W/m2
08:50 3 °C 2 °C 1014.9 hPa E 13 km/h 13 km/h 95% 0.25 mm 271 W/m2
08:55 3 °C 3 °C 1014.9 hPa E 19 km/h 19 km/h 95% 0.25 mm 257 W/m2
09:00 4 °C 3 °C 1014.9 hPa ESE 13 km/h 13 km/h 95% 0.25 mm 160 W/m2
09:05 4 °C 3 °C 1014.9 hPa E 19 km/h 19 km/h 95% 0.25 mm 424 W/m2
09:10 4 °C 3 °C 1014.9 hPa ENE 19 km/h 19 km/h 95% 0.25 mm 431 W/m2
09:15 4 °C 3 °C 1014.9 hPa ESE 19 km/h 19 km/h 94% 0.25 mm 62 W/m2
09:20 4 °C 3 °C 1014.9 hPa E 13 km/h 13 km/h 93% 0.25 mm 139 W/m2
09:25 4 °C 3 °C 1014.9 hPa ESE 13 km/h 13 km/h 93% 0.25 mm 135 W/m2
09:30 4 °C 3 °C 1014.9 hPa ESE 19 km/h 19 km/h 93% 0.25 mm 146 W/m2
09:35 4 °C 3 °C 1014.9 hPa ESE 19 km/h 19 km/h 93% 0.25 mm 84 W/m2
09:40 4 °C 3 °C 1014.9 hPa ESE 20 km/h 20 km/h 92% 0.25 mm 72 W/m2
09:45 4 °C 3 °C 1015.24 hPa ESE 19 km/h 19 km/h 92% 0 mm 62 W/m2
09:50 4 °C 3 °C 1015.24 hPa ESE 15 km/h 15 km/h 92% 0.25 mm 88 W/m2
09:55 4 °C 3 °C 1015.24 hPa ESE 22 km/h 22 km/h 92% 0.51 mm 135 W/m2
10:00 3 °C 2 °C 1014.9 hPa ESE 9 km/h 10 km/h 92% 0.51 mm 190 W/m2
10:05 3 °C 3 °C 1014.9 hPa E 13 km/h 13 km/h 93% 0.51 mm 279 W/m2
10:10 4 °C 3 °C 1014.9 hPa E 7 km/h 7 km/h 93% 0.51 mm 294 W/m2
10:15 4 °C 3 °C 1014.9 hPa E 9 km/h 9 km/h 93% 0.51 mm 234 W/m2
10:24 4 °C 3 °C 1014.9 hPa ENE 12 km/h 13 km/h 94% 0.51 mm 693 W/m2
10:29 5 °C 4 °C 1014.9 hPa E 19 km/h 19 km/h 94% 0.51 mm 309 W/m2
10:34 5 °C 4 °C 1014.56 hPa ESE 14 km/h 14 km/h 94% 0.51 mm 559 W/m2
10:39 5 °C 4 °C 1014.56 hPa E 13 km/h 13 km/h 94% 0.51 mm 541 W/m2
10:44 6 °C 4 °C 1014.56 hPa E 19 km/h 19 km/h 93% 0.51 mm 276 W/m2
10:49 6 °C 4 °C 1014.56 hPa ESE 19 km/h 19 km/h 91% 0.51 mm 578 W/m2
10:54 6 °C 4 °C 1014.56 hPa E 19 km/h 19 km/h 92% 0 mm 589 W/m2
10:59 6 °C 4 °C 1014.22 hPa E 22 km/h 22 km/h 91% 0 mm 615 W/m2
11:04 6 °C 4 °C 1014.22 hPa SE 20 km/h 20 km/h 89% 0 mm 587 W/m2
11:09 6 °C 4 °C 1014.22 hPa ESE 19 km/h 19 km/h 88% 0 mm 443 W/m2
11:14 7 °C 4 °C 1014.22 hPa ESE 11 km/h 11 km/h 88% 0 mm 455 W/m2
11:19 7 °C 4 °C 1014.22 hPa ESE 19 km/h 19 km/h 86% 0 mm 262 W/m2
11:24 7 °C 4 °C 1014.22 hPa ESE 15 km/h 15 km/h 86% 0 mm 343 W/m2
11:29 7 °C 4 °C 1014.22 hPa E 19 km/h 19 km/h 84% 0 mm 628 W/m2
11:34 7 °C 4 °C 1014.22 hPa ESE 13 km/h 13 km/h 84% 0 mm 250 W/m2
11:39 7 °C 4 °C 1014.22 hPa ESE 15 km/h 15 km/h 84% 0 mm 265 W/m2
11:44 7 °C 4 °C 1014.22 hPa E 11 km/h 11 km/h 83% 0 mm 728 W/m2
11:49 7 °C 4 °C 1013.88 hPa E 13 km/h 13 km/h 84% 0 mm 276 W/m2
11:54 7 °C 4 °C 1013.88 hPa SE 20 km/h 20 km/h 83% 0 mm 772 W/m2
11:59 7 °C 5 °C 1013.88 hPa ENE 19 km/h 19 km/h 83% 0 mm 327 W/m2
12:04 7 °C 4 °C 1013.88 hPa E 17 km/h 17 km/h 80% 0 mm 200 W/m2
12:09 7 °C 4 °C 1013.88 hPa E 20 km/h 20 km/h 79% 0 mm 165 W/m2
12:14 7 °C 4 °C 1013.88 hPa ESE 19 km/h 19 km/h 79% 0 mm 165 W/m2
12:19 7 °C 4 °C 1013.88 hPa ENE 13 km/h 13 km/h 79% 0 mm 192 W/m2
12:24 7 °C 4 °C 1013.55 hPa ENE 19 km/h 19 km/h 79% 0 mm 745 W/m2
12:29 8 °C 4 °C 1013.55 hPa E 10 km/h 10 km/h 79% 0 mm 680 W/m2
12:34 8 °C 4 °C 1013.55 hPa E 11 km/h 11 km/h 78% 0 mm 661 W/m2
12:39 8 °C 4 °C 1013.55 hPa ESE 19 km/h 19 km/h 77% 0 mm 701 W/m2
12:44 8 °C 4 °C 1013.55 hPa ESE 15 km/h 15 km/h 76% 0 mm 694 W/m2
12:49 8 °C 4 °C 1013.55 hPa ESE 13 km/h 13 km/h 75% 0 mm 707 W/m2
12:54 8 °C 4 °C 1013.21 hPa ESE 14 km/h 14 km/h 75% 0 mm 712 W/m2
12:59 9 °C 4 °C 1013.55 hPa ENE 19 km/h 19 km/h 76% 0 mm 789 W/m2
13:04 8 °C 3 °C 1013.55 hPa E 22 km/h 22 km/h 72% 0 mm 104 W/m2
13:09 7 °C 3 °C 1013.55 hPa E 15 km/h 15 km/h 75% 0 mm 32 W/m2
13:14 7 °C 3 °C 1013.55 hPa NE 15 km/h 15 km/h 78% 0.51 mm 35 W/m2
13:19 6 °C 3 °C 1013.55 hPa ENE 6 km/h 6 km/h 81% 0.51 mm 95 W/m2
13:24 6 °C 3 °C 1013.21 hPa Calm     83% 0.51 mm 153 W/m2
13:29 6 °C 3 °C 1013.21 hPa NE 6 km/h 6 km/h 85% 0.51 mm 580 W/m2
13:34 6 °C 4 °C 1013.21 hPa ENE 9 km/h 9 km/h 87% 0.51 mm 225 W/m2
13:39 7 °C 4 °C 1013.21 hPa NNE 11 km/h 11 km/h 87% 0.51 mm 255 W/m2
13:44 7 °C 5 °C 1013.21 hPa ENE 11 km/h 11 km/h 87% 0.51 mm 292 W/m2
13:49 7 °C 5 °C 1013.21 hPa E 17 km/h 17 km/h 86% 0.51 mm 636 W/m2
13:54 7 °C 5 °C 1012.87 hPa ENE 7 km/h 7 km/h 85% 0.51 mm 411 W/m2
13:59 8 °C 5 °C 1012.87 hPa E 8 km/h 8 km/h 83% 0.51 mm 156 W/m2
14:04 8 °C 5 °C 1012.87 hPa NE 7 km/h 7 km/h 83% 0.51 mm 181 W/m2
14:09 8 °C 5 °C 1012.87 hPa ENE 19 km/h 19 km/h 82% 0.51 mm 251 W/m2
14:14 8 °C 4 °C 1012.87 hPa ENE 11 km/h 11 km/h 81% 0 mm 323 W/m2
14:19 8 °C 5 °C 1012.87 hPa E 9 km/h 9 km/h 81% 0 mm 171 W/m2
14:24 8 °C 5 °C 1012.87 hPa ENE 11 km/h 11 km/h 81% 0 mm 468 W/m2
14:29 8 °C 5 °C 1012.53 hPa NNE 11 km/h 11 km/h 80% 0 mm 615 W/m2
14:34 8 °C 5 °C 1012.53 hPa NE 11 km/h 11 km/h 79% 0 mm 285 W/m2
14:40 8 °C 4 °C 1012.53 hPa E 15 km/h 15 km/h 77% 0 mm 47 W/m2
14:45 8 °C 4 °C 1012.53 hPa E 13 km/h 13 km/h 77% 0 mm 47 W/m2
14:50 8 °C 4 °C 1012.53 hPa ENE 11 km/h 11 km/h 77% 0 mm 69 W/m2
14:55 8 °C 4 °C 1012.53 hPa ENE 13 km/h 13 km/h 78% 0 mm 132 W/m2
15:00 8 °C 4 °C 1012.53 hPa ENE 9 km/h 9 km/h 79% 0 mm 190 W/m2
15:05 8 °C 4 °C 1012.53 hPa E 13 km/h 13 km/h 80% 0 mm 272 W/m2
15:10 8 °C 4 °C 1012.19 hPa E 15 km/h 15 km/h 78% 0 mm 237 W/m2
15:15 8 °C 4 °C 1012.53 hPa ENE 19 km/h 19 km/h 77% 0 mm 265 W/m2
15:20 8 °C 4 °C 1012.19 hPa ESE 19 km/h 19 km/h 76% 0 mm 58 W/m2
15:25 8 °C 4 °C 1012.19 hPa ENE 19 km/h 19 km/h 77% 0 mm 114 W/m2
15:30 8 °C 4 °C 1012.19 hPa ESE 19 km/h 19 km/h 77% 0 mm 206 W/m2
15:35 8 °C 4 °C 1012.19 hPa ENE 17 km/h 17 km/h 79% 0 mm 183 W/m2
15:40 8 °C 4 °C 1012.19 hPa E 11 km/h 11 km/h 79% 0 mm 211 W/m2
15:45 8 °C 4 °C 1012.19 hPa E 19 km/h 19 km/h 78% 0 mm 225 W/m2
15:50 8 °C 4 °C 1012.19 hPa SE 23 km/h 23 km/h 78% 0 mm 218 W/m2
15:55 8 °C 4 °C 1012.19 hPa E 15 km/h 15 km/h 79% 0 mm 149 W/m2
16:00 8 °C 4 °C 1012.19 hPa ESE 19 km/h 19 km/h 79% 0 mm 139 W/m2
16:05 8 °C 4 °C 1012.19 hPa ESE 19 km/h 19 km/h 78% 0 mm 171 W/m2
16:10 8 °C 4 °C 1012.19 hPa E 11 km/h 11 km/h 78% 0 mm 185 W/m2
16:15 8 °C 4 °C 1012.19 hPa E 26 km/h 26 km/h 78% 0 mm 206 W/m2
16:20 8 °C 4 °C 1012.19 hPa E 20 km/h 20 km/h 80% 0 mm 179 W/m2
16:25 8 °C 4 °C 1012.53 hPa E 20 km/h 20 km/h 80% 0 mm 107 W/m2
16:30 7 °C 4 °C 1012.53 hPa ESE 13 km/h 13 km/h 81% 0 mm 67 W/m2
16:35 7 °C 4 °C 1012.53 hPa ESE 17 km/h 17 km/h 82% 0 mm 69 W/m2
16:40 7 °C 4 °C 1012.53 hPa E 19 km/h 19 km/h 82% 0 mm 91 W/m2
16:45 7 °C 4 °C 1012.53 hPa ESE 20 km/h 20 km/h 82% 0 mm 63 W/m2
16:50 7 °C 4 °C 1012.53 hPa NE 13 km/h 13 km/h 83% 0 mm 51 W/m2
16:55 7 °C 4 °C 1012.53 hPa ENE 13 km/h 13 km/h 83% 0 mm 40 W/m2
17:00 7 °C 4 °C 1012.53 hPa ENE 11 km/h 11 km/h 84% 0 mm 37 W/m2
17:05 7 °C 4 °C 1012.87 hPa E 19 km/h 19 km/h 83% 0 mm 28 W/m2
17:10 6 °C 3 °C 1012.87 hPa E 20 km/h 20 km/h 81% 0 mm 23 W/m2
17:15 6 °C 3 °C 1012.87 hPa ENE 22 km/h 22 km/h 82% 0.25 mm 18 W/m2
17:20 6 °C 3 °C 1012.87 hPa E 13 km/h 13 km/h 83% 0.51 mm 7 W/m2
17:25 6 °C 3 °C 1012.87 hPa E 13 km/h 13 km/h 85% 0.51 mm 9 W/m2
17:34 5 °C 3 °C 1012.87 hPa ESE 15 km/h 15 km/h 86% 0.76 mm 7 W/m2
17:39 5 °C 3 °C 1013.21 hPa E 11 km/h 11 km/h 88% 0.76 mm 5 W/m2
17:44 4 °C 3 °C 1013.21 hPa E 7 km/h 8 km/h 88% 1.02 mm 7 W/m2
17:49 4 °C 3 °C 1013.21 hPa ESE 9 km/h 9 km/h 89% 1.27 mm 5 W/m2
17:54 4 °C 3 °C 1013.21 hPa E 11 km/h 11 km/h 90% 1.27 mm 5 W/m2
17:59 4 °C 3 °C 1013.21 hPa E 9 km/h 9 km/h 90% 1.27 mm 5 W/m2
18:04 4 °C 3 °C 1013.21 hPa ESE 7 km/h 7 km/h 91% 1.27 mm 0 W/m2
18:09 4 °C 3 °C 1013.21 hPa E 6 km/h 6 km/h 91% 1.27 mm 5 W/m2
18:14 4 °C 3 °C 1013.21 hPa ESE 10 km/h 10 km/h 91% 1.27 mm 0 W/m2
18:19 4 °C 3 °C 1013.21 hPa E 10 km/h 10 km/h 92% 1.27 mm 0 W/m2
18:24 4 °C 3 °C 1013.21 hPa E 10 km/h 10 km/h 91% 0.76 mm 0 W/m2
18:29 4 °C 3 °C 1013.21 hPa ESE 11 km/h 11 km/h 92% 0.51 mm 0 W/m2
18:34 4 °C 3 °C 1013.21 hPa ESE 11 km/h 11 km/h 92% 0.76 mm 0 W/m2
18:39 4 °C 3 °C 1013.21 hPa ESE 15 km/h 15 km/h 92% 0.76 mm 0 W/m2
18:44 4 °C 3 °C 1013.21 hPa ESE 13 km/h 13 km/h 92% 0.51 mm 0 W/m2
18:49 4 °C 3 °C 1013.21 hPa ESE 13 km/h 13 km/h 93% 0.51 mm 0 W/m2
18:54 4 °C 3 °C 1013.55 hPa ESE 11 km/h 11 km/h 93% 0.51 mm 0 W/m2
18:59 4 °C 3 °C 1013.55 hPa ESE 11 km/h 11 km/h 93% 0.51 mm 0 W/m2
19:04 4 °C 3 °C 1013.55 hPa ESE 13 km/h 13 km/h 93% 0.51 mm 0 W/m2
19:09 4 °C 3 °C 1013.55 hPa SE 11 km/h 11 km/h 93% 0.76 mm 0 W/m2
19:14 4 °C 3 °C 1013.55 hPa SE 11 km/h 11 km/h 93% 0.51 mm 0 W/m2
19:19 4 °C 3 °C 1013.88 hPa SE 6 km/h 6 km/h 93% 1.02 mm 0 W/m2
19:24 4 °C 3 °C 1013.88 hPa S 15 km/h 15 km/h 93% 1.02 mm 0 W/m2
19:29 4 °C 3 °C 1013.88 hPa SSE 9 km/h 9 km/h 93% 1.02 mm 0 W/m2
19:34 4 °C 3 °C 1013.88 hPa SSE 4 km/h 4 km/h 93% 0.76 mm 0 W/m2
19:39 4 °C 3 °C 1013.88 hPa Calm   4 km/h 93% 0.76 mm 0 W/m2
19:44 4 °C 3 °C 1013.88 hPa SSE 6 km/h 6 km/h 93% 0.76 mm 0 W/m2
19:49 4 °C 3 °C 1014.22 hPa SSE 6 km/h 6 km/h 93% 0.76 mm 0 W/m2
19:54 4 °C 3 °C 1014.22 hPa Calm     93% 0.51 mm 0 W/m2
19:59 4 °C 3 °C 1014.22 hPa Calm     94% 0.51 mm 0 W/m2
20:04 4 °C 3 °C 1014.22 hPa Calm     93% 0.51 mm 0 W/m2
20:09 3 °C 3 °C 1014.22 hPa Calm     94% 0.51 mm 0 W/m2
20:14 3 °C 2 °C 1014.22 hPa Calm     93% 0.51 mm 0 W/m2
20:19 3 °C 3 °C 1014.56 hPa Calm     94% 0.25 mm 0 W/m2
20:24 3 °C 3 °C 1014.56 hPa Calm     94% 0 mm 0 W/m2
20:29 3 °C 3 °C 1014.56 hPa Calm     94% 0 mm 0 W/m2
20:34 3 °C 3 °C 1014.22 hPa Calm     94% 0 mm 0 W/m2
20:39 3 °C 3 °C 1014.56 hPa Calm     94% 0 mm 0 W/m2
20:44 3 °C 3 °C 1014.56 hPa Calm     94% 0 mm 0 W/m2
20:49 3 °C 2 °C 1014.56 hPa Calm     94% 0 mm 0 W/m2
20:54 3 °C 2 °C 1014.56 hPa Calm     94% 0 mm 0 W/m2
20:59 3 °C 2 °C 1014.56 hPa Calm     94% 0 mm 0 W/m2
21:04 3 °C 2 °C 1014.56 hPa Calm     94% 0 mm 0 W/m2
21:09 3 °C 2 °C 1014.56 hPa Calm     94% 0 mm 0 W/m2
21:14 3 °C 2 °C 1014.56 hPa Calm     94% 0 mm 0 W/m2
21:19 3 °C 2 °C 1014.56 hPa Calm     94% 0 mm 0 W/m2
21:24 3 °C 2 °C 1014.56 hPa Calm     94% 0 mm 0 W/m2
21:30 3 °C 2 °C 1014.56 hPa Calm     94% 0 mm 0 W/m2
21:35 3 °C 2 °C 1014.56 hPa Calm     94% 0 mm 0 W/m2
21:40 3 °C 2 °C 1014.56 hPa Calm     94% 0 mm 0 W/m2
21:45 3 °C 2 °C 1014.56 hPa Calm     94% 0 mm 0 W/m2
21:50 3 °C 2 °C 1014.56 hPa SSE 4 km/h 4 km/h 94% 0 mm 0 W/m2
21:55 3 °C 2 °C 1014.9 hPa SSE 4 km/h 4 km/h 94% 0 mm 0 W/m2
22:00 3 °C 2 °C 1014.9 hPa SSE 2 km/h   95% 0 mm 0 W/m2
22:05 3 °C 2 °C 1014.9 hPa SSE 7 km/h 7 km/h 95% 0 mm 0 W/m2
22:10 3 °C 2 °C 1014.9 hPa SSE 6 km/h 6 km/h 95% 0 mm 0 W/m2
22:15 3 °C 2 °C 1014.9 hPa SSE 6 km/h 6 km/h 95% 0 mm 0 W/m2
22:20 3 °C 2 °C 1014.9 hPa SSE 4 km/h 4 km/h 95% 0 mm 0 W/m2
22:25 3 °C 2 °C 1014.9 hPa SSE 4 km/h 4 km/h 95% 0 mm 0 W/m2
22:30 3 °C 2 °C 1014.9 hPa SSE 4 km/h 4 km/h 95% 0 mm 0 W/m2
22:35 3 °C 2 °C 1014.9 hPa Calm     95% 0 mm 0 W/m2
22:40 3 °C 2 °C 1014.9 hPa Calm     95% 0 mm 0 W/m2
22:45 3 °C 2 °C 1014.9 hPa SSE 6 km/h 6 km/h 95% 0 mm 0 W/m2
22:50 3 °C 2 °C 1014.9 hPa SSE 4 km/h 4 km/h 95% 0 mm 0 W/m2
22:55 3 °C 2 °C 1014.9 hPa SSE 2 km/h 2 km/h 95% 0 mm 0 W/m2
23:00 3 °C 2 °C 1014.9 hPa SSE 3 km/h 3 km/h 95% 0 mm 0 W/m2
23:05 3 °C 3 °C 1014.9 hPa Calm     95% 0 mm 0 W/m2
23:10 3 °C 3 °C 1014.9 hPa Calm     95% 0 mm 0 W/m2
23:15 3 °C 2 °C 1014.9 hPa Calm     95% 0 mm 0 W/m2
23:20 3 °C 2 °C 1014.9 hPa Calm     95% 0 mm 0 W/m2
23:25 3 °C 3 °C 1014.9 hPa SSE 2 km/h 2 km/h 95% 0 mm 0 W/m2
23:30 3 °C 3 °C 1014.9 hPa Calm     95% 0 mm 0 W/m2
23:35 3 °C 3 °C 1014.9 hPa Calm     95% 0 mm 0 W/m2
23:40 3 °C 3 °C 1014.9 hPa Calm     95% 0 mm 0 W/m2
23:45 3 °C 3 °C 1014.9 hPa Calm     95% 0 mm 0 W/m2
23:50 3 °C 3 °C 1014.9 hPa SSE 4 km/h   96% 0 mm 0 W/m2
23:55 3 °C 3 °C 1014.9 hPa SSE 2 km/h 2 km/h 96% 0 mm 0 W/m2
Compliments of Weather Underground - 4 mb